sensor_id;sensor_type;location;lat;lon;timestamp;pressure;altitude;pressure_sealevel;temperature;humidity
22862;BME280;11598;50.652;6.172;2023-07-31T00:08:44;96263.94;;;13.43;100.00
22862;BME280;11598;50.652;6.172;2023-07-31T00:18:45;96253.22;;;13.46;100.00
22862;BME280;11598;50.652;6.172;2023-07-31T00:28:45;96246.78;;;13.50;100.00
22862;BME280;11598;50.652;6.172;2023-07-31T00:38:45;96254.59;;;13.50;100.00
22862;BME280;11598;50.652;6.172;2023-07-31T00:48:46;96240.88;;;13.48;100.00
22862;BME280;11598;50.652;6.172;2023-07-31T00:58:46;96241.13;;;13.45;100.00
22862;BME280;11598;50.652;6.172;2023-07-31T01:09:02;96236.19;;;13.42;100.00
22862;BME280;11598;50.652;6.172;2023-07-31T01:19:02;96233.03;;;13.38;100.00
22862;BME280;11598;50.652;6.172;2023-07-31T01:29:10;96228.75;;;13.37;100.00
22862;BME280;11598;50.652;6.172;2023-07-31T01:39:14;96226.97;;;13.38;100.00
22862;BME280;11598;50.652;6.172;2023-07-31T01:49:15;96216.69;;;13.36;100.00
22862;BME280;11598;50.652;6.172;2023-07-31T01:59:16;96196.63;;;13.37;100.00
22862;BME280;11598;50.652;6.172;2023-07-31T02:09:16;96176.03;;;13.34;100.00
22862;BME280;11598;50.652;6.172;2023-07-31T02:19:16;96164.06;;;13.31;100.00
22862;BME280;11598;50.652;6.172;2023-07-31T02:29:16;96166.84;;;13.29;100.00
22862;BME280;11598;50.652;6.172;2023-07-31T02:39:17;96155.72;;;13.27;100.00
22862;BME280;11598;50.652;6.172;2023-07-31T02:49:17;96142.38;;;13.30;100.00
22862;BME280;11598;50.652;6.172;2023-07-31T02:59:17;96149.25;;;13.31;100.00
22862;BME280;11598;50.652;6.172;2023-07-31T03:09:19;96139.53;;;13.34;100.00
22862;BME280;11598;50.652;6.172;2023-07-31T03:19:19;96128.41;;;13.31;100.00
22862;BME280;11598;50.652;6.172;2023-07-31T03:29:19;96125.91;;;13.30;100.00
22862;BME280;11598;50.652;6.172;2023-07-31T03:39:20;96119.72;;;13.31;100.00
22862;BME280;11598;50.652;6.172;2023-07-31T03:49:20;96108.47;;;13.30;100.00
22862;BME280;11598;50.652;6.172;2023-07-31T03:59:21;96105.72;;;13.32;100.00
22862;BME280;11598;50.652;6.172;2023-07-31T04:09:21;96085.81;;;13.31;100.00
22862;BME280;11598;50.652;6.172;2023-07-31T04:19:21;96073.59;;;13.31;100.00
22862;BME280;11598;50.652;6.172;2023-07-31T04:29:22;96073.72;;;13.30;100.00
22862;BME280;11598;50.652;6.172;2023-07-31T04:39:22;96079.78;;;13.30;100.00
22862;BME280;11598;50.652;6.172;2023-07-31T04:49:22;96055.06;;;13.35;100.00
22862;BME280;11598;50.652;6.172;2023-07-31T04:59:23;96054.34;;;13.42;100.00
22862;BME280;11598;50.652;6.172;2023-07-31T05:09:23;96052.66;;;13.51;100.00
22862;BME280;11598;50.652;6.172;2023-07-31T05:19:23;96054.84;;;13.56;100.00
22862;BME280;11598;50.652;6.172;2023-07-31T05:29:24;96051.56;;;13.53;100.00
22862;BME280;11598;50.652;6.172;2023-07-31T05:39:24;96049.34;;;13.59;100.00
22862;BME280;11598;50.652;6.172;2023-07-31T05:49:24;96023.19;;;13.68;100.00
22862;BME280;11598;50.652;6.172;2023-07-31T05:59:25;96011.22;;;13.75;100.00
22862;BME280;11598;50.652;6.172;2023-07-31T06:09:25;96004.16;;;13.86;100.00
22862;BME280;11598;50.652;6.172;2023-07-31T06:19:26;95994.63;;;13.94;100.00
22862;BME280;11598;50.652;6.172;2023-07-31T06:29:26;95996.16;;;14.15;100.00
22862;BME280;11598;50.652;6.172;2023-07-31T06:39:26;95988.66;;;14.30;100.00
22862;BME280;11598;50.652;6.172;2023-07-31T06:49:27;95984.53;;;14.45;100.00
22862;BME280;11598;50.652;6.172;2023-07-31T06:59:27;95999.47;;;14.35;100.00
22862;BME280;11598;50.652;6.172;2023-07-31T07:09:27;96003.03;;;14.34;100.00
22862;BME280;11598;50.652;6.172;2023-07-31T07:19:28;96000.25;;;14.17;100.00
22862;BME280;11598;50.652;6.172;2023-07-31T07:29:28;95982.34;;;14.23;100.00
22862;BME280;11598;50.652;6.172;2023-07-31T07:39:28;95979.34;;;14.17;100.00
22862;BME280;11598;50.652;6.172;2023-07-31T07:49:29;95979.53;;;14.16;100.00
22862;BME280;11598;50.652;6.172;2023-07-31T07:59:29;95964.13;;;13.95;100.00
22862;BME280;11598;50.652;6.172;2023-07-31T08:09:29;95953.94;;;13.92;100.00
22862;BME280;11598;50.652;6.172;2023-07-31T08:19:30;95937.81;;;14.06;100.00
22862;BME280;11598;50.652;6.172;2023-07-31T08:29:30;95948.38;;;14.05;100.00
22862;BME280;11598;50.652;6.172;2023-07-31T08:39:30;95949.88;;;14.07;100.00
22862;BME280;11598;50.652;6.172;2023-07-31T08:49:32;95935.19;;;14.24;100.00
22862;BME280;11598;50.652;6.172;2023-07-31T08:59:35;95938.31;;;14.28;100.00
22862;BME280;11598;50.652;6.172;2023-07-31T09:09:36;95940.31;;;14.34;100.00
22862;BME280;11598;50.652;6.172;2023-07-31T09:19:37;95954.38;;;14.33;100.00
22862;BME280;11598;50.652;6.172;2023-07-31T09:29:38;95951.59;;;14.34;100.00
22862;BME280;11598;50.652;6.172;2023-07-31T09:39:47;95942.19;;;14.59;100.00
22862;BME280;11598;50.652;6.172;2023-07-31T09:49:48;95945.50;;;15.14;100.00
22862;BME280;11598;50.652;6.172;2023-07-31T09:59:49;95930.16;;;15.53;100.00
22862;BME280;11598;50.652;6.172;2023-07-31T10:09:53;95946.78;;;15.70;100.00
22862;BME280;11598;50.652;6.172;2023-07-31T10:19:56;95944.50;;;15.75;100.00
22862;BME280;11598;50.652;6.172;2023-07-31T10:29:58;95939.44;;;15.74;100.00
22862;BME280;11598;50.652;6.172;2023-07-31T10:40:02;95944.50;;;15.75;100.00
22862;BME280;11598;50.652;6.172;2023-07-31T10:50:19;95945.53;;;15.48;100.00
22862;BME280;11598;50.652;6.172;2023-07-31T11:00:28;95933.72;;;15.44;100.00
22862;BME280;11598;50.652;6.172;2023-07-31T11:10:28;95925.94;;;15.26;100.00
22862;BME280;11598;50.652;6.172;2023-07-31T11:20:30;95923.97;;;15.20;100.00
22862;BME280;11598;50.652;6.172;2023-07-31T11:30:31;95919.97;;;15.08;100.00
22862;BME280;11598;50.652;6.172;2023-07-31T11:40:41;95917.66;;;15.05;100.00
22862;BME280;11598;50.652;6.172;2023-07-31T11:50:41;95906.22;;;15.06;100.00
22862;BME280;11598;50.652;6.172;2023-07-31T12:00:42;95899.13;;;14.98;100.00
22862;BME280;11598;50.652;6.172;2023-07-31T12:10:42;95904.69;;;14.95;100.00
22862;BME280;11598;50.652;6.172;2023-07-31T12:21:04;95884.84;;;15.18;100.00
22862;BME280;11598;50.652;6.172;2023-07-31T12:31:05;95887.50;;;15.69;100.00
22862;BME280;11598;50.652;6.172;2023-07-31T12:41:06;95871.03;;;15.85;100.00
22862;BME280;11598;50.652;6.172;2023-07-31T12:51:07;95870.56;;;16.06;100.00
22862;BME280;11598;50.652;6.172;2023-07-31T13:01:07;95802.06;;;16.50;100.00
22862;BME280;11598;50.652;6.172;2023-07-31T13:11:07;95792.97;;;16.85;100.00
22862;BME280;11598;50.652;6.172;2023-07-31T13:21:08;95782.63;;;17.23;100.00
22862;BME280;11598;50.652;6.172;2023-07-31T13:31:08;95806.91;;;17.33;100.00
22862;BME280;11598;50.652;6.172;2023-07-31T13:41:08;95797.94;;;17.11;100.00
22862;BME280;11598;50.652;6.172;2023-07-31T13:51:09;95808.81;;;17.08;100.00
22862;BME280;11598;50.652;6.172;2023-07-31T14:01:09;95820.72;;;16.80;100.00
22862;BME280;11598;50.652;6.172;2023-07-31T14:11:09;95818.31;;;16.37;100.00
22862;BME280;11598;50.652;6.172;2023-07-31T14:21:10;95819.16;;;15.97;100.00
22862;BME280;11598;50.652;6.172;2023-07-31T14:31:10;95814.38;;;15.76;100.00
22862;BME280;11598;50.652;6.172;2023-07-31T14:41:10;95793.38;;;15.68;100.00
22862;BME280;11598;50.652;6.172;2023-07-31T14:51:11;95782.75;;;15.69;100.00
22862;BME280;11598;50.652;6.172;2023-07-31T15:01:11;95775.59;;;15.71;100.00
22862;BME280;11598;50.652;6.172;2023-07-31T15:11:12;95766.91;;;15.95;100.00
22862;BME280;11598;50.652;6.172;2023-07-31T15:21:13;95767.25;;;15.76;100.00
22862;BME280;11598;50.652;6.172;2023-07-31T15:31:13;95766.50;;;15.41;100.00
22862;BME280;11598;50.652;6.172;2023-07-31T15:41:13;95755.50;;;15.13;100.00
22862;BME280;11598;50.652;6.172;2023-07-31T15:51:14;95732.06;;;14.95;100.00
22862;BME280;11598;50.652;6.172;2023-07-31T16:01:15;95714.03;;;14.84;100.00
22862;BME280;11598;50.652;6.172;2023-07-31T16:11:15;95688.53;;;14.77;100.00
22862;BME280;11598;50.652;6.172;2023-07-31T16:21:16;95669.41;;;14.77;100.00
22862;BME280;11598;50.652;6.172;2023-07-31T16:31:16;95653.22;;;14.73;100.00
22862;BME280;11598;50.652;6.172;2023-07-31T16:41:16;95648.78;;;14.74;100.00
22862;BME280;11598;50.652;6.172;2023-07-31T16:51:17;95630.16;;;14.69;100.00
22862;BME280;11598;50.652;6.172;2023-07-31T17:01:17;95608.91;;;14.64;100.00
22862;BME280;11598;50.652;6.172;2023-07-31T17:11:17;95599.59;;;14.61;100.00
22862;BME280;11598;50.652;6.172;2023-07-31T17:21:18;95594.03;;;14.56;100.00
22862;BME280;11598;50.652;6.172;2023-07-31T17:31:18;95562.59;;;14.48;100.00
22862;BME280;11598;50.652;6.172;2023-07-31T17:41:18;95572.06;;;14.41;100.00
22862;BME280;11598;50.652;6.172;2023-07-31T17:51:19;95564.38;;;14.39;100.00
22862;BME280;11598;50.652;6.172;2023-07-31T18:01:20;95565.50;;;14.36;100.00
22862;BME280;11598;50.652;6.172;2023-07-31T18:11:20;95559.47;;;14.36;100.00
22862;BME280;11598;50.652;6.172;2023-07-31T18:21:21;95550.97;;;14.34;100.00
22862;BME280;11598;50.652;6.172;2023-07-31T18:31:21;95541.34;;;14.34;100.00
22862;BME280;11598;50.652;6.172;2023-07-31T18:41:23;95525.84;;;14.33;100.00
22862;BME280;11598;50.652;6.172;2023-07-31T18:51:23;95523.56;;;14.30;100.00
22862;BME280;11598;50.652;6.172;2023-07-31T19:01:24;95502.13;;;14.26;100.00
22862;BME280;11598;50.652;6.172;2023-07-31T19:11:24;95484.84;;;14.25;100.00
22862;BME280;11598;50.652;6.172;2023-07-31T19:21:24;95462.16;;;14.26;100.00
22862;BME280;11598;50.652;6.172;2023-07-31T19:31:25;95446.63;;;14.24;100.00
22862;BME280;11598;50.652;6.172;2023-07-31T19:41:26;95409.09;;;14.25;100.00
22862;BME280;11598;50.652;6.172;2023-07-31T19:51:26;95416.75;;;14.19;100.00
22862;BME280;11598;50.652;6.172;2023-07-31T20:01:26;95390.78;;;14.17;100.00
22862;BME280;11598;50.652;6.172;2023-07-31T20:11:27;95366.31;;;14.18;100.00
22862;BME280;11598;50.652;6.172;2023-07-31T20:21:27;95339.03;;;14.21;100.00
22862;BME280;11598;50.652;6.172;2023-07-31T20:31:28;95371.66;;;14.25;100.00
22862;BME280;11598;50.652;6.172;2023-07-31T20:41:28;95355.00;;;14.34;100.00
22862;BME280;11598;50.652;6.172;2023-07-31T20:51:28;95345.53;;;14.41;100.00
22862;BME280;11598;50.652;6.172;2023-07-31T21:01:29;95326.94;;;14.44;100.00
22862;BME280;11598;50.652;6.172;2023-07-31T21:11:30;95303.22;;;14.46;100.00
22862;BME280;11598;50.652;6.172;2023-07-31T21:21:32;95287.53;;;14.46;100.00
22862;BME280;11598;50.652;6.172;2023-07-31T21:31:33;95274.47;;;14.46;100.00
22862;BME280;11598;50.652;6.172;2023-07-31T21:41:33;95251.78;;;14.46;100.00
22862;BME280;11598;50.652;6.172;2023-07-31T21:51:33;95218.63;;;14.47;100.00
22862;BME280;11598;50.652;6.172;2023-07-31T22:01:34;95224.66;;;14.47;100.00
22862;BME280;11598;50.652;6.172;2023-07-31T22:11:34;95173.22;;;14.48;100.00
22862;BME280;11598;50.652;6.172;2023-07-31T22:21:34;95149.69;;;14.48;100.00
22862;BME280;11598;50.652;6.172;2023-07-31T22:31:35;95124.56;;;14.47;100.00
22862;BME280;11598;50.652;6.172;2023-07-31T22:41:35;95111.94;;;14.50;100.00
22862;BME280;11598;50.652;6.172;2023-07-31T22:51:35;95100.34;;;14.53;100.00
22862;BME280;11598;50.652;6.172;2023-07-31T23:01:36;95082.03;;;14.53;100.00
22862;BME280;11598;50.652;6.172;2023-07-31T23:11:36;95071.13;;;14.49;100.00
22862;BME280;11598;50.652;6.172;2023-07-31T23:21:37;95062.94;;;14.52;100.00
22862;BME280;11598;50.652;6.172;2023-07-31T23:31:37;95057.59;;;14.54;100.00
22862;BME280;11598;50.652;6.172;2023-07-31T23:41:37;94981.59;;;14.55;100.00
22862;BME280;11598;50.652;6.172;2023-07-31T23:51:38;95032.75;;;14.58;100.00
